Date,TemperatureHighF,TemperatureAvgF,TemperatureLowF,DewpointHighF,DewpointAvgF,DewpointLowF,HumidityHigh,HumidityAvg,HumidityLow,PressureMaxIn,PressureMinIn,WindSpeedMaxMPH,WindSpeedAvgMPH,GustSpeedMaxMPH,PrecipitationSumIn
2013-1-1,38.9,36.9,33.0,36.7,34.7,31.9,100,92,85,30.50,30.35,7,2,8,0.00
2013-1-2,44.9,36.5,32.3,37.7,33.6,30.2,98,90,63,30.36,30.18,12,2,13,0.01
2013-1-3,41.0,35.1,31.0,35.1,31.0,27.9,94,84,69,30.19,30.04,24,4,24,0.01
2013-1-4,38.0,35.4,34.1,34.9,33.9,32.2,97,94,92,30.24,30.09,9,2,16,0.00
2013-1-5,41.0,39.6,38.8,39.4,38.2,37.3,98,95,89,30.16,30.05,9,3,28,0.02
2013-1-6,40.6,38.2,35.6,37.6,36.1,34.3,96,92,83,30.13,29.90,10,3,23,0.00
2013-1-7,47.7,41.9,38.0,43.8,38.9,34.2,97,89,65,30.14,29.76,8,4,21,0.09
2013-1-8,46.7,41.6,37.3,44.1,39.9,36.0,96,93,87,30.14,29.63,9,4,23,0.12
2013-1-9,45.7,37.4,33.3,43.1,35.4,31.5,100,86,81,29.92,29.65,19,5,22,0.22
2013-1-10,38.0,33.6,30.4,33.5,30.0,-91.1,96,87,64,30.13,29.92,19,5,19,0.17
2013-1-11,38.0,31.5,27.1,24.0,20.9,17.9,83,65,54,30.32,30.13,17,5,17,0.00
2013-1-12,38.0,29.1,25.7,28.4,24.3,22.0,94,82,68,30.44,30.31,10,3,10,0.00
2013-1-13,38.0,31.1,28.7,28.4,26.7,22.6,89,81,76,30.49,30.43,8,2,9,0.00
2013-1-14,33.7,32.2,30.5,31.1,29.1,26.5,95,88,81,30.57,30.45,8,3,10,0.02
2013-1-15,38.0,35.2,31.8,35.0,32.4,29.9,95,90,81,30.71,30.57,9,2,9,0.00
2013-1-16,38.0,35.0,33.0,32.6,31.8,30.4,92,87,82,30.68,30.53,9,2,9,0.00
2013-1-17,38.0,33.8,29.7,34.8,31.9,28.9,98,93,87,30.54,30.28,12,3,12,0.00
2013-1-18,38.0,32.6,29.1,34.2,32.0,28.6,99,98,95,30.35,30.26,9,2,9,0.00
2013-1-19,38.0,35.1,0.0,34.0,33.3,32.3,96,77,89,30.39,30.34,9,3,9,0.00
2013-3-24,0.0,0.0,0.0,0.0,0.0,0.0,0,0,100,30.28,30.11,0,0,0,0.00
2013-3-25,0.0,0.0,0.0,0.0,0.0,0.0,0,0,100,30.11,29.95,0,0,0,0.00
2013-3-26,0.0,0.0,0.0,0.0,0.0,0.0,0,0,100,30.01,29.96,0,0,0,0.00
2013-3-27,0.0,0.0,0.0,0.0,0.0,0.0,0,0,100,29.99,29.94,0,0,0,0.00
2013-3-28,0.0,0.0,0.0,0.0,0.0,0.0,0,0,100,30.15,29.99,0,0,0,0.00
2013-3-29,0.0,0.0,0.0,0.0,0.0,0.0,0,0,100,30.26,30.15,0,0,0,0.00
2013-3-30,58.0,43.7,0.0,47.3,36.7,0.0,75,59,64,30.27,30.13,0,0,0,0.00
2013-3-31,0.0,0.0,0.0,0.0,0.0,0.0,0,0,100,30.08,29.91,0,0,0,0.00
2013-4-1,52.0,43.3,0.0,48.3,40.6,0.0,99,81,86,30.15,29.96,0,0,0,0.00
2013-4-2,50.0,47.5,46.0,46.5,44.8,42.5,97,90,80,30.19,30.13,0,0,0,0.00
2013-4-3,53.0,48.8,46.0,46.7,44.9,42.0,95,86,71,30.18,29.94,0,0,0,0.00
2013-4-4,54.0,48.3,0.0,51.6,43.2,0.0,96,84,81,29.96,29.54,0,0,0,0.00
2013-4-5,52.0,48.9,48.0,49.8,47.5,46.4,98,95,88,29.77,29.62,0,0,0,0.00
2013-4-6,45.0,0.0,0.0,0.0,0.0,0.0,0,0,100,29.88,29.84,0,0,0,0.00
2013-7-26,0.0,0.0,0.0,0.0,0.0,0.0,0,0,100,30.16,30.09,0,0,0,0.00
2013-7-27,0.0,0.0,0.0,0.0,0.0,0.0,0,0,100,30.15,30.00,0,0,0,0.00
2013-7-28,0.0,0.0,0.0,0.0,0.0,0.0,0,0,100,30.00,29.94,0,0,0,0.00
2013-7-29,0.0,0.0,0.0,0.0,0.0,0.0,0,0,100,30.01,29.96,0,0,0,0.00
2013-7-30,0.0,0.0,0.0,0.0,0.0,0.0,0,0,100,30.14,30.01,0,0,0,0.00
2013-7-31,0.0,0.0,0.0,0.0,0.0,0.0,0,0,100,30.12,30.01,0,0,0,0.00
2013-8-1,66.0,47.0,0.0,57.9,40.5,0.0,75,53,75,30.05,30.02,0,0,0,0.00
2013-8-9,0.0,0.0,0.0,0.0,0.0,0.0,0,0,100,29.97,29.84,0,0,0,0.00
2013-8-10,0.0,0.0,0.0,0.0,0.0,0.0,0,0,100,30.01,29.88,0,0,0,0.00
2013-8-11,0.0,0.0,0.0,0.0,0.0,0.0,0,0,100,30.07,30.01,0,0,0,0.00
2013-8-12,0.0,0.0,0.0,0.0,0.0,0.0,0,0,100,30.07,30.01,0,0,0,0.00
2013-8-13,0.0,0.0,0.0,0.0,0.0,0.0,0,0,100,30.10,29.94,0,0,0,0.00
2013-8-14,0.0,0.0,0.0,0.0,0.0,0.0,0,0,100,29.94,29.90,0,0,0,0.00
2013-8-15,66.0,48.2,0.0,57.9,42.3,0.0,75,55,75,29.99,29.92,0,0,0,0.00
2013-8-16,66.0,66.0,66.0,57.9,57.9,57.9,75,75,75,30.00,29.96,0,0,0,0.00
2013-8-17,66.0,66.0,66.0,57.9,57.9,57.9,75,75,75,30.08,29.99,0,0,0,0.00
2013-8-18,0.0,0.0,0.0,0.0,0.0,0.0,0,0,100,30.13,30.07,0,0,0,0.00
2013-8-19,66.0,57.6,0.0,57.9,46.4,0.0,75,60,75,30.12,30.06,0,0,0,0.00
2013-8-20,66.0,66.0,66.0,57.9,57.9,57.9,75,75,75,30.17,30.09,0,0,0,0.00
2013-8-21,66.0,66.0,66.0,57.9,57.9,57.9,75,75,75,30.10,29.95,0,0,0,0.00
2013-8-22,66.0,66.0,66.0,57.9,57.9,57.9,75,75,75,29.95,29.80,0,0,0,0.00
2013-8-23,66.0,66.0,66.0,57.9,57.9,57.9,75,75,75,29.85,29.83,0,0,0,0.00
2013-12-5,33.4,29.1,29.5,27.1,20.6,-99.9,88,80,68,30.26,30.18,11,-40,11,0.00
2013-12-6,30.6,28.5,26.2,24.1,16.3,11.3,79,60,45,30.22,30.18,14,2,18,0.00
2013-12-7,28.9,25.6,21.0,17.2,8.4,-99.9,77,50,36,30.42,30.35,14,-10,14,0.00
2013-12-8,33.1,28.0,22.1,23.7,18.4,12.9,84,67,54,30.54,30.40,9,1,9,0.00
2013-12-9,33.1,31.0,27.3,29.1,24.6,19.2,86,77,68,30.54,30.45,12,2,12,0.00
2013-12-10,37.0,35.0,32.5,33.6,31.5,28.6,94,87,82,30.46,30.39,9,2,9,0.00
2013-12-11,38.8,34.7,31.8,36.0,31.9,-99.9,97,92,87,30.39,30.13,10,-10,10,0.00
2013-12-12,43.9,37.6,32.4,40.1,35.7,30.9,97,93,84,30.13,29.93,12,1,12,0.00
2013-12-13,48.6,42.3,38.1,43.7,40.5,36.5,97,93,82,30.39,30.08,12,1,12,0.00
2013-12-14,46.2,44.2,42.4,44.4,42.8,40.6,97,95,92,30.40,30.24,10,1,11,0.00
2013-12-15,48.6,43.8,39.0,45.9,42.7,38.3,98,96,89,30.43,30.27,9,1,9,0.02
2013-12-16,47.8,41.8,36.5,45.7,40.6,35.4,99,96,83,30.47,30.24,6,1,7,0.01
2013-12-17,43.5,39.0,35.1,41.2,38.0,33.8,99,96,91,30.24,30.07,10,1,10,0.00
2013-12-18,44.6,40.8,35.2,40.5,34.7,28.2,96,80,54,30.19,30.00,17,3,18,0.01
2013-12-19,38.5,36.3,34.0,30.6,24.6,20.5,83,63,49,30.33,30.16,20,2,27,0.00
2013-12-20,39.0,35.3,32.4,38.3,33.6,28.4,97,94,76,30.17,29.67,16,3,17,0.21
2013-12-21,42.3,40.3,38.7,41.0,39.5,38.1,98,97,93,30.14,29.84,8,0,9,0.17
2013-12-22,45.0,43.0,40.8,44.6,42.5,40.3,99,98,98,30.26,30.13,10,1,10,0.19
2013-12-23,49.5,44.8,39.4,45.7,40.9,34.7,99,87,66,30.50,30.08,22,3,24,0.06
2013-12-24,45.0,39.8,33.3,40.3,37.1,32.0,97,90,71,30.59,30.49,6,0,7,0.00
2013-12-25,43.5,38.7,34.0,39.0,36.3,32.2,97,91,81,30.52,30.36,7,1,7,0.00
2013-12-26,46.9,40.0,34.2,41.4,37.9,33.4,98,92,78,30.37,30.18,4,1,9,0.00
2013-12-27,48.6,40.4,34.2,46.0,39.0,33.6,98,95,87,30.35,30.06,14,1,16,0.05
2013-12-28,48.7,40.9,35.8,43.7,38.9,34.9,98,93,75,30.51,30.35,5,1,6,0.00
2013-12-29,42.8,39.3,34.0,40.6,38.1,33.4,98,96,91,30.47,30.30,7,0,7,0.00
2013-12-30,43.7,41.2,38.1,41.7,40.2,37.4,99,96,91,30.30,30.08,8,1,9,0.03
2013-12-31,45.9,42.6,40.6,44.1,41.7,39.9,99,96,92,30.36,30.14,10,1,10,0.01
2014-1-1,43.5,41.3,37.6,42.3,40.7,36.9,99,98,92,30.39,30.22,6,1,6,0.03
2014-1-2,45.7,42.9,40.6,44.2,41.8,35.6,99,96,77,30.23,29.86,21,2,25,0.20